Time;durP1;ratioP1;P1;durP2;ratioP2;P2;SDS_P1;SDS_P2;PMS_P1;PMS_P2;Temp;Humidity;BMP_temperature;BMP_pressure;BME280_temperature;BME280_humidity;BME280_pressure;Samples;Min_cycle;Max_cycle;Signal;HPM_P1;HPM_P2
2022/04/26 03:36:37;;;;;;;15.57;7.53;;;5.80;99.90;;;;;;5015325;28;20254;-83
2022/04/26 03:39:03;;;;;;;16.60;8.27;;;5.80;99.90;;;;;;5014363;28;20579;-83
2022/04/26 03:41:30;;;;;;;14.40;7.63;;;5.80;99.90;;;;;;5013355;28;20609;-83
2022/04/26 03:43:55;;;;;;;13.33;8.10;;;5.70;99.90;;;;;;5013812;28;20665;-83
2022/04/26 03:46:21;;;;;;;18.03;8.23;;;5.80;99.90;;;;;;5013231;28;20197;-83
2022/04/26 03:48:47;;;;;;;19.57;7.80;;;5.80;99.90;;;;;;5013564;28;20215;-83
2022/04/26 03:51:12;;;;;;;19.50;8.83;;;5.70;99.90;;;;;;5013306;28;20170;-83
2022/04/26 03:53:39;;;;;;;15.03;8.13;;;5.70;99.90;;;;;;5012972;28;20177;-83
2022/04/26 03:56:05;;;;;;;15.73;8.20;;;5.70;99.90;;;;;;5014505;28;20194;-83
2022/04/26 03:58:31;;;;;;;23.07;8.53;;;5.70;99.90;;;;;;5016234;28;20205;-84
2022/04/26 04:00:57;;;;;;;18.67;7.83;;;5.70;99.90;;;;;;5015747;28;20171;-84
2022/04/26 04:03:23;;;;;;;16.43;8.13;;;5.70;99.90;;;;;;5015255;28;20244;-83
2022/04/26 04:05:48;;;;;;;17.53;8.97;;;5.70;99.90;;;;;;5016215;28;20176;-83
2022/04/26 04:08:14;;;;;;;21.47;9.60;;;5.60;99.90;;;;;;5016451;28;20227;-83
2022/04/26 04:10:40;;;;;;;22.17;8.83;;;5.60;99.90;;;;;;5015625;28;20173;-83
2022/04/26 04:13:05;;;;;;;21.37;8.90;;;5.60;99.90;;;;;;5015246;28;20176;-84
2022/04/26 04:15:31;;;;;;;23.50;9.53;;;5.60;99.90;;;;;;5015303;28;20221;-83
2022/04/26 04:17:57;;;;;;;19.23;9.73;;;5.60;99.90;;;;;;5017875;28;20592;-84
2022/04/26 04:20:23;;;;;;;17.70;9.23;;;5.60;99.90;;;;;;5016257;28;20268;-84
2022/04/26 04:22:49;;;;;;;19.27;9.80;;;5.70;99.90;;;;;;5017468;28;20242;-85
2022/04/26 04:25:17;;;;;;;20.07;10.60;;;5.60;99.90;;;;;;5016727;28;20178;-84
2022/04/26 04:27:43;;;;;;;19.77;9.53;;;5.60;99.90;;;;;;5017409;28;20213;-83
2022/04/26 04:30:09;;;;;;;25.60;9.80;;;5.60;99.90;;;;;;5016336;28;20180;-84
2022/04/26 04:32:35;;;;;;;27.60;9.97;;;5.70;99.90;;;;;;5016765;28;20179;-85
2022/04/26 04:35:01;;;;;;;26.40;10.20;;;5.70;99.90;;;;;;5016718;28;20684;-86
2022/04/26 04:37:26;;;;;;;21.00;10.80;;;5.70;99.90;;;;;;5017468;28;20265;-85
2022/04/26 04:39:52;;;;;;;23.50;11.20;;;5.80;99.90;;;;;;5017841;28;20265;-86
2022/04/26 04:42:18;;;;;;;29.77;11.27;;;5.80;99.90;;;;;;5016010;28;20194;-86
2022/04/26 04:44:43;;;;;;;26.70;10.80;;;5.80;99.90;;;;;;5016824;28;20187;-85
2022/04/26 04:47:09;;;;;;;24.73;11.43;;;5.80;99.90;;;;;;5015753;28;20188;-86
2022/04/26 04:49:35;;;;;;;23.70;10.87;;;5.90;99.90;;;;;;5016377;28;20178;-85
2022/04/26 04:52:01;;;;;;;22.90;11.37;;;5.90;99.90;;;;;;5012755;28;20181;-85
2022/04/26 04:54:26;;;;;;;24.77;11.43;;;5.90;99.90;;;;;;5016526;28;20202;-85
2022/04/26 04:56:52;;;;;;;21.53;10.80;;;6.00;99.90;;;;;;5015207;28;20194;-85
2022/04/26 04:59:17;;;;;;;27.27;10.73;;;6.10;99.90;;;;;;5016730;28;20217;-85
2022/04/26 05:01:43;;;;;;;26.93;11.13;;;6.10;99.90;;;;;;5017410;28;20180;-86
2022/04/26 05:04:09;;;;;;;25.77;11.37;;;6.20;99.90;;;;;;5017683;28;20173;-85
2022/04/26 05:06:34;;;;;;;25.60;11.80;;;6.30;99.90;;;;;;5016519;28;20281;-86
2022/04/26 05:09:00;;;;;;;22.83;10.53;;;6.30;99.90;;;;;;5016716;28;20247;-85
2022/04/26 05:11:26;;;;;;;19.63;10.27;;;6.40;99.90;;;;;;5016308;28;20256;-85
2022/04/26 05:13:52;;;;;;;23.83;10.00;;;6.50;99.90;;;;;;5016148;28;20325;-86
2022/04/26 05:16:17;;;;;;;24.57;11.73;;;6.60;99.90;;;;;;5016417;28;20199;-86
2022/04/26 05:18:43;;;;;;;21.60;10.60;;;6.70;99.90;;;;;;5016033;28;20185;-86
2022/04/26 05:21:15;;;;;;;21.87;9.97;;;6.80;99.90;;;;;;5015583;28;20270;-86
2022/04/26 05:26:25;;;;;;;20.53;10.10;;;6.90;99.90;;;;;;5017738;28;20677;-85
2022/04/26 05:28:51;;;;;;;22.10;10.47;;;7.10;99.90;;;;;;5016306;28;20178;-86
2022/04/26 05:31:17;;;;;;;21.43;10.30;;;7.20;99.90;;;;;;5016321;28;20174;-86
2022/04/26 05:33:43;;;;;;;20.70;9.60;;;7.30;99.90;;;;;;5017161;28;20183;-86
2022/04/26 05:36:09;;;;;;;17.93;10.40;;;7.30;99.90;;;;;;5016438;28;20223;-86
2022/04/26 05:38:34;;;;;;;19.57;9.87;;;7.40;99.90;;;;;;5015823;28;20179;-85
2022/04/26 05:41:00;;;;;;;23.10;9.97;;;7.50;99.90;;;;;;5015806;28;20261;-85
2022/04/26 05:43:26;;;;;;;20.37;10.30;;;7.60;99.90;;;;;;5016701;28;20277;-85
2022/04/26 05:45:52;;;;;;;23.63;9.57;;;7.60;99.90;;;;;;5017152;28;20241;-85
2022/04/26 05:48:18;;;;;;;16.93;9.00;;;7.70;99.90;;;;;;5016964;28;20177;-85
2022/04/26 05:50:44;;;;;;;17.47;9.30;;;7.90;99.90;;;;;;5017814;28;20290;-85
2022/04/26 05:53:09;;;;;;;18.17;9.20;;;8.00;99.90;;;;;;5017212;28;20194;-85
2022/04/26 05:55:35;;;;;;;19.13;9.30;;;8.20;99.90;;;;;;5017430;28;20171;-86
2022/04/26 05:58:04;;;;;;;17.03;9.33;;;8.30;99.90;;;;;;5018554;28;20823;-85
2022/04/26 06:00:29;;;;;;;16.80;9.33;;;8.40;99.90;;;;;;5021890;28;20201;-86
2022/04/26 06:02:56;;;;;;;15.57;8.43;;;8.50;99.90;;;;;;5021583;28;20639;-86
2022/04/26 06:05:22;;;;;;;17.53;8.43;;;8.70;99.90;;;;;;5021551;28;20312;-85
2022/04/26 06:07:48;;;;;;;15.33;7.60;;;9.30;99.90;;;;;;5022765;28;20654;-84
2022/04/26 06:10:14;;;;;;;17.83;8.23;;;9.50;99.90;;;;;;5022042;28;20171;-84
2022/04/26 06:12:42;;;;;;;9.30;6.80;;;9.70;99.90;;;;;;5021642;28;20239;-84
2022/04/26 06:15:08;;;;;;;12.93;8.03;;;9.80;99.90;;;;;;5021651;28;20178;-83
2022/04/26 06:17:34;;;;;;;16.13;7.93;;;9.60;99.90;;;;;;5021788;28;20210;-84
2022/04/26 06:19:59;;;;;;;13.43;7.70;;;10.10;99.90;;;;;;5021285;28;20224;-84
2022/04/26 06:22:25;;;;;;;13.17;7.53;;;10.50;99.90;;;;;;5020324;28;20202;-84
2022/04/26 06:24:52;;;;;;;13.77;7.40;;;10.80;99.90;;;;;;5020519;28;20177;-84
2022/04/26 06:27:18;;;;;;;13.33;8.00;;;10.60;99.90;;;;;;5019980;28;20588;-82
2022/04/26 06:29:44;;;;;;;14.67;8.10;;;11.00;99.90;;;;;;5029078;28;20642;-81
2022/04/26 06:32:10;;;;;;;13.37;7.60;;;11.10;99.90;;;;;;5016970;28;20189;-81
2022/04/26 06:34:36;;;;;;;14.23;8.07;;;11.00;99.90;;;;;;5015114;28;20178;-81
2022/04/26 06:37:01;;;;;;;14.37;7.40;;;11.10;99.90;;;;;;5014383;28;20205;-82
2022/04/26 06:39:28;;;;;;;11.70;7.60;;;11.30;99.90;;;;;;5017427;28;20171;-81
2022/04/26 06:41:53;;;;;;;11.33;7.57;;;11.60;99.90;;;;;;5020489;28;20174;-82
2022/04/26 06:44:19;;;;;;;11.63;7.53;;;11.20;99.90;;;;;;5022907;28;20182;-82
2022/04/26 06:46:44;;;;;;;15.93;7.87;;;11.70;99.90;;;;;;5021302;28;20195;-84
2022/04/26 06:49:10;;;;;;;14.40;8.00;;;11.90;99.90;;;;;;5022245;28;20302;-82
2022/04/26 06:51:40;;;;;;;12.00;8.10;;;12.00;99.90;;;;;;5022479;28;20171;-82
2022/04/26 06:54:07;;;;;;;13.07;7.33;;;12.30;99.90;;;;;;5022894;28;20638;-82
2022/04/26 06:56:33;;;;;;;15.77;8.70;;;12.30;99.90;;;;;;5022215;28;20198;-83
2022/04/26 06:58:58;;;;;;;15.50;8.20;;;12.20;99.90;;;;;;5020802;28;20194;-83
2022/04/26 07:01:24;;;;;;;15.83;8.30;;;12.20;99.90;;;;;;5020531;28;20233;-83
2022/04/26 07:03:49;;;;;;;13.90;8.67;;;12.40;99.90;;;;;;5021531;28;20667;-84
2022/04/26 07:06:15;;;;;;;15.23;8.73;;;12.40;99.90;;;;;;5020343;28;20213;-84
2022/04/26 07:08:41;;;;;;;16.90;8.60;;;12.70;99.90;;;;;;5019508;28;20384;-84
2022/04/26 07:11:07;;;;;;;13.90;8.23;;;12.60;99.90;;;;;;5019576;28;20174;-84
2022/04/26 07:13:32;;;;;;;15.53;8.80;;;12.50;99.90;;;;;;5020488;28;20207;-85
2022/04/26 07:15:58;;;;;;;15.60;8.77;;;12.40;99.90;;;;;;5020287;28;20201;-83
2022/04/26 07:18:24;;;;;;;18.60;9.13;;;12.40;99.90;;;;;;5020170;28;20187;-84
2022/04/26 07:20:49;;;;;;;15.20;9.50;;;11.80;99.90;;;;;;5020269;28;20175;-85
2022/04/26 07:23:15;;;;;;;16.40;9.67;;;11.90;99.90;;;;;;5019338;28;20206;-84
2022/04/26 07:25:41;;;;;;;16.57;10.17;;;11.90;99.90;;;;;;5019905;28;20182;-82
2022/04/26 07:28:06;;;;;;;24.77;11.07;;;12.00;99.90;;;;;;5018327;28;20166;-81
2022/04/26 07:30:35;;;;;;;17.13;10.30;;;11.80;99.90;;;;;;5019112;28;20545;-83
2022/04/26 07:35:52;;;;;;;21.57;11.33;;;11.70;99.90;;;;;;5008331;28;20181;-81
2022/04/26 07:38:17;;;;;;;19.67;11.13;;;11.60;99.90;;;;;;5019961;28;20175;-82
2022/04/26 07:40:43;;;;;;;20.87;11.50;;;11.50;99.90;;;;;;5018786;28;20200;-83
2022/04/26 07:43:09;;;;;;;21.73;11.53;;;11.30;99.90;;;;;;5020121;28;20256;-82
2022/04/26 07:45:39;;;;;;;19.97;11.67;;;12.00;99.90;;;;;;5018277;28;20178;-81
2022/04/26 07:48:06;;;;;;;16.70;10.33;;;12.90;99.90;;;;;;5018595;28;20178;-83
2022/04/26 07:50:35;;;;;;;21.73;10.90;;;12.90;99.90;;;;;;5019506;28;20206;-84
2022/04/26 07:53:02;;;;;;;14.60;9.60;;;13.30;99.90;;;;;;5018889;28;20269;-81
2022/04/26 07:55:29;;;;;;;13.60;9.07;;;13.90;99.90;;;;;;5018958;28;20507;-83
2022/04/26 07:57:55;;;;;;;16.23;8.47;;;14.30;99.90;;;;;;5018426;28;20663;-82
2022/04/26 08:00:21;;;;;;;16.97;9.17;;;14.60;99.90;;;;;;5018485;28;20186;-84
2022/04/26 08:02:46;;;;;;;15.77;9.03;;;14.10;99.90;;;;;;5019303;28;20614;-84
2022/04/26 08:05:14;;;;;;;22.07;8.63;;;13.90;99.90;;;;;;5017252;28;20269;-85
2022/04/26 08:07:41;;;;;;;14.93;9.00;;;14.10;99.90;;;;;;5016776;28;20211;-81
2022/04/26 08:10:11;;;;;;;18.90;9.77;;;14.00;99.90;;;;;;5018066;28;20171;-81
2022/04/26 08:12:41;;;;;;;20.17;10.80;;;14.10;99.90;;;;;;5018240;28;20206;-81
2022/04/26 08:15:08;;;;;;;17.33;9.77;;;14.20;99.90;;;;;;5019524;28;20178;-81
2022/04/26 08:17:33;;;;;;;15.47;9.57;;;14.80;99.90;;;;;;5021945;28;20193;-82
2022/04/26 08:19:59;;;;;;;18.73;9.57;;;14.00;99.90;;;;;;5021089;28;20186;-82
2022/04/26 08:22:25;;;;;;;13.93;9.23;;;13.80;99.90;;;;;;5019618;28;20198;-81
2022/04/26 08:27:35;;;;;;;18.80;10.00;;;14.20;99.90;;;;;;5020123;28;20253;-82
2022/04/26 08:30:04;;;;;;;16.83;9.07;;;15.00;99.90;;;;;;5014128;28;20182;-81
2022/04/26 08:32:42;;;;;;;20.93;9.43;;;15.40;99.90;;;;;;5014501;28;20171;-82
2022/04/26 08:35:10;;;;;;;14.30;9.23;;;15.40;99.90;;;;;;5013804;28;20178;-81
2022/04/26 08:37:37;;;;;;;13.83;8.97;;;15.30;99.90;;;;;;5013904;28;20252;-80
2022/04/26 08:40:06;;;;;;;14.27;9.47;;;15.40;99.90;;;;;;5013945;28;20229;-81
2022/04/26 08:42:42;;;;;;;18.53;10.47;;;14.80;99.90;;;;;;5014177;28;20250;-81
2022/04/26 08:45:10;;;;;;;17.97;10.10;;;15.20;99.90;;;;;;5013872;28;20170;-82
2022/04/26 08:53:06;;;;;;;15.90;10.13;;;15.70;99.90;;;;;;5018502;28;20201;-82
2022/04/26 08:55:32;;;;;;;15.73;9.40;;;16.40;99.90;;;;;;5016133;28;20233;-81
2022/04/26 08:57:59;;;;;;;17.33;9.80;;;16.50;99.90;;;;;;5013374;28;20185;-82
2022/04/26 09:00:25;;;;;;;13.87;9.93;;;17.00;99.90;;;;;;5013561;28;20459;-82
2022/04/26 09:03:04;;;;;;;19.00;10.83;;;16.90;99.90;;;;;;5014140;28;20198;-82
2022/04/26 09:05:31;;;;;;;14.50;9.80;;;16.20;99.90;;;;;;5013013;28;20642;-82
2022/04/26 09:07:58;;;;;;;16.23;9.87;;;16.60;99.90;;;;;;5014017;28;20195;-82
2022/04/26 09:10:25;;;;;;;17.00;10.00;;;16.50;99.90;;;;;;5014330;28;20182;-81
2022/04/26 09:13:04;;;;;;;21.23;10.80;;;17.00;99.90;;;;;;5014267;28;20256;-82
2022/04/26 09:15:54;;;;;;;14.47;9.60;;;16.60;99.90;;;;;;5014052;28;20670;-82
2022/04/26 09:18:30;;;;;;;15.37;10.13;;;16.70;99.90;;;;;;5007903;28;20183;-83
2022/04/26 09:20:57;;;;;;;15.00;9.70;;;17.00;99.90;;;;;;5028454;28;20166;-82
2022/04/26 09:23:25;;;;;;;17.63;10.47;;;16.60;99.90;;;;;;5015504;28;20194;-80
2022/04/26 09:26:17;;;;;;;17.73;10.43;;;17.40;99.90;;;;;;5013681;28;20317;-79
2022/04/26 09:28:51;;;;;;;17.60;10.50;;;17.60;99.90;;;;;;5012649;28;20169;-81
2022/04/26 09:31:22;;;;;;;14.60;8.60;;;17.30;99.90;;;;;;5011479;28;20178;-83
2022/04/26 09:33:52;;;;;;;15.75;9.27;;;18.00;99.90;;;;;;5013479;28;20178;-83
2022/04/26 09:36:22;;;;;;;11.93;8.93;;;18.40;99.90;;;;;;5014255;28;20188;-83
2022/04/26 09:38:52;;;;;;;14.13;8.50;;;18.40;99.90;;;;;;5014525;28;20173;-83
2022/04/26 09:41:18;;;;;;;17.58;8.95;;;17.30;99.90;;;;;;5014423;28;20174;-83
2022/04/26 09:43:54;;;;;;;19.48;9.02;;;17.30;99.90;;;;;;5014269;28;20586;-86
2022/04/26 09:46:21;;;;;;;15.77;9.38;;;17.40;99.90;;;;;;5012801;28;20190;-81
2022/04/26 09:48:47;;;;;;;15.43;9.35;;;16.70;99.90;;;;;;5013530;28;20171;-81
2022/04/26 09:51:12;;;;;;;14.87;8.80;;;17.50;99.90;;;;;;5012733;28;20166;-81
2022/04/26 09:53:38;;;;;;;16.37;9.93;;;17.90;99.90;;;;;;5014034;28;20175;-81
2022/04/26 09:56:04;;;;;;;14.20;9.53;;;17.60;98.30;;;;;;5019920;28;20190;-81
2022/04/26 09:58:31;;;;;;;16.17;9.77;;;17.60;99.90;;;;;;5013879;28;20242;-82
2022/04/26 10:01:00;;;;;;;17.52;10.35;;;17.90;99.60;;;;;;5012800;28;20201;-81
2022/04/26 10:03:31;;;;;;;25.05;10.30;;;16.70;99.10;;;;;;5011845;28;20222;-81
2022/04/26 10:06:02;;;;;;;14.82;10.20;;;17.00;99.90;;;;;;5011826;28;20187;-80
2022/04/26 10:08:31;;;;;;;18.27;10.57;;;18.00;99.20;;;;;;5011791;28;20167;-81
2022/04/26 10:10:57;;;;;;;18.37;11.07;;;17.90;98.00;;;;;;5011554;28;20167;-82
2022/04/26 10:13:35;;;;;;;20.30;10.97;;;16.50;98.70;;;;;;5011084;28;20182;-81
2022/04/26 10:16:08;;;;;;;18.83;11.07;;;16.20;99.90;;;;;;5011537;28;20501;-80
2022/04/26 10:18:38;;;;;;;17.73;10.83;;;17.20;99.50;;;;;;5011436;28;20179;-81
2022/04/26 10:21:05;;;;;;;15.93;10.00;;;18.00;99.70;;;;;;5011034;28;20551;-81
2022/04/26 10:24:05;;;;;;;18.25;10.25;;;18.60;98.70;;;;;;5011201;28;20207;-81
2022/04/26 10:26:31;;;;;;;16.88;10.57;;;17.60;98.00;;;;;;5011450;28;20187;-81
2022/04/26 10:28:59;;;;;;;19.45;11.30;;;17.50;98.70;;;;;;5011535;28;20202;-80
2022/04/26 10:31:38;;;;;;;18.67;11.37;;;17.60;97.90;;;;;;5011425;28;20258;-80
2022/04/26 10:34:26;;;;;;;17.23;10.40;;;17.00;98.70;;;;;;5011098;28;20262;-81
2022/04/26 10:37:14;;;;;;;19.13;11.20;;;17.20;98.80;;;;;;5011381;28;20206;-81
2022/04/26 10:39:42;;;;;;;16.50;10.77;;;18.00;98.60;;;;;;5011215;28;20175;-82
2022/04/26 10:42:29;;;;;;;15.98;10.65;;;18.30;95.80;;;;;;5012454;28;20538;-82
2022/04/26 10:45:09;;;;;;;16.88;10.55;;;18.30;97.50;;;;;;5012946;28;20194;-81
2022/04/26 10:47:35;;;;;;;17.30;10.23;;;18.40;96.00;;;;;;5013386;28;20690;-81
2022/04/26 10:50:02;;;;;;;22.10;11.57;;;17.10;95.80;;;;;;5014948;28;20167;-80
2022/04/26 10:52:37;;;;;;;18.60;10.33;;;17.60;97.40;;;;;;5016082;28;20178;-81
2022/04/26 10:55:08;;;;;;;14.32;10.20;;;18.50;95.00;;;;;;5015732;28;20505;-77
2022/04/26 10:57:44;;;;;;;16.17;10.27;;;18.30;95.10;;;;;;5015775;28;20194;-80
2022/04/26 11:00:23;;;;;;;19.73;11.73;;;18.40;95.40;;;;;;5007917;28;20185;-82
2022/04/26 11:02:50;;;;;;;18.07;10.30;;;18.30;95.20;;;;;;5015479;28;20208;-82
2022/04/26 11:05:27;;;;;;;20.15;11.65;;;18.00;96.40;;;;;;5015019;28;20178;-81
2022/04/26 11:08:10;;;;;;;17.92;11.18;;;18.50;94.30;;;;;;5016116;28;20689;-80
2022/04/26 11:13:37;;;;;;;17.23;11.60;;;18.00;95.10;;;;;;5018246;28;20625;-82
2022/04/26 11:19:10;;;;;;;23.08;13.18;;;17.50;95.00;;;;;;5016281;28;20170;-79
2022/04/26 11:21:36;;;;;;;15.80;11.23;;;18.40;96.00;;;;;;5014328;28;20265;-81
2022/04/26 11:29:52;;;;;;;16.67;10.27;;;19.00;92.70;;;;;;5016114;28;20274;-81
2022/04/26 11:32:32;;;;;;;19.42;10.65;;;19.10;93.40;;;;;;5014480;28;20674;-81
2022/04/26 11:34:58;;;;;;;14.52;10.02;;;18.60;94.00;;;;;;5013367;28;20540;-81
2022/04/26 11:37:24;;;;;;;16.73;10.65;;;19.30;93.20;;;;;;5013356;28;20202;-82
2022/04/26 11:39:49;;;;;;;18.98;11.10;;;18.40;93.20;;;;;;5015604;28;20182;-81
2022/04/26 11:42:16;;;;;;;16.90;11.50;;;18.40;94.10;;;;;;5015492;28;20198;-81
2022/04/26 11:45:21;;;;;;;20.50;11.52;;;17.80;92.80;;;;;;5015386;28;20262;-82
2022/04/26 11:47:48;;;;;;;16.83;11.48;;;17.20;94.30;;;;;;4974451;28;20243;-82
2022/04/26 11:50:27;;;;;;;17.83;12.03;;;17.20;95.00;;;;;;4959138;28;20720;-81
2022/04/26 11:52:59;;;;;;;17.43;11.50;;;16.90;94.60;;;;;;4990509;28;20198;-80
2022/04/26 11:55:28;;;;;;;16.90;11.03;;;16.90;94.60;;;;;;5015737;28;20163;-81
2022/04/26 11:58:09;;;;;;;18.40;10.97;;;17.30;94.90;;;;;;5016302;28;20199;-81
2022/04/26 12:00:36;;;;;;;19.20;10.97;;;17.70;93.10;;;;;;5016530;28;20179;-80
2022/04/26 12:03:02;;;;;;;16.93;11.07;;;18.30;94.10;;;;;;5015783;28;20191;-80
2022/04/26 12:05:29;;;;;;;17.47;10.60;;;18.70;92.60;;;;;;5016099;28;20658;-81
2022/04/26 12:07:55;;;;;;;18.40;10.90;;;16.90;93.20;;;;;;5015098;28;20190;-79
2022/04/26 12:10:35;;;;;;;17.63;11.30;;;17.40;94.10;;;;;;5015203;28;20167;-81
2022/04/26 12:13:03;;;;;;;16.88;11.02;;;18.30;91.80;;;;;;5013930;28;20174;-81
2022/04/26 12:15:31;;;;;;;18.02;10.85;;;18.50;92.30;;;;;;5012354;28;20226;-78
2022/04/26 12:18:11;;;;;;;16.10;11.40;;;18.40;92.10;;;;;;5015282;28;20213;-80
2022/04/26 12:21:00;;;;;;;16.57;10.43;;;17.40;91.10;;;;;;5016223;28;20693;-81
2022/04/26 12:23:27;;;;;;;19.00;11.17;;;16.90;90.90;;;;;;5015892;28;20195;-78
2022/04/26 12:26:00;;;;;;;18.00;11.47;;;17.10;92.30;;;;;;5017210;28;20570;-79
2022/04/26 12:28:25;;;;;;;20.70;12.00;;;17.00;92.20;;;;;;5017091;28;20211;-79
2022/04/26 12:30:52;;;;;;;16.47;10.83;;;17.10;93.70;;;;;;5015628;28;20543;-79
2022/04/26 12:33:34;;;;;;;17.00;11.13;;;17.50;92.20;;;;;;5016929;28;20253;-78
2022/04/26 12:36:06;;;;;;;15.70;10.23;;;18.00;92.70;;;;;;5016954;28;20191;-79
2022/04/26 12:38:46;;;;;;;18.93;11.07;;;17.70;91.80;;;;;;5014800;28;20230;-81
2022/04/26 12:41:11;;;;;;;16.33;10.50;;;16.40;93.20;;;;;;5015465;28;20583;-81
2022/04/26 12:43:37;;;;;;;15.97;11.10;;;16.50;93.10;;;;;;5018673;28;20225;-81
2022/04/26 12:46:06;;;;;;;14.07;10.20;;;16.60;93.60;;;;;;5017788;28;20656;-80
2022/04/26 12:51:22;;;;;;;21.10;9.50;;;17.40;92.60;;;;;;5017916;28;20202;-81
2022/04/26 12:53:52;;;;;;;17.53;10.40;;;17.40;92.70;;;;;;5018907;28;20171;-80
2022/04/26 12:56:20;;;;;;;17.23;10.20;;;16.70;92.70;;;;;;5018153;28;20205;-80
2022/04/26 12:58:47;;;;;;;16.37;9.70;;;16.60;93.40;;;;;;5019212;28;20194;-80
2022/04/26 13:01:14;;;;;;;14.30;8.80;;;17.00;93.80;;;;;;5020418;28;20178;-82
2022/04/26 13:03:41;;;;;;;13.43;9.30;;;17.10;93.90;;;;;;5022255;28;20273;-80
2022/04/26 13:06:16;;;;;;;18.07;9.87;;;17.20;92.70;;;;;;5021211;28;20248;-81
2022/04/26 13:08:43;;;;;;;12.30;8.70;;;17.20;92.70;;;;;;5020616;28;20220;-81
2022/04/26 13:11:09;;;;;;;13.57;9.17;;;17.40;91.50;;;;;;5013659;28;20662;-80
2022/04/26 13:13:36;;;;;;;13.10;8.23;;;16.90;91.40;;;;;;5013033;28;20175;-80
2022/04/26 13:16:02;;;;;;;16.67;9.17;;;17.50;92.40;;;;;;5014238;28;20197;-78
2022/04/26 13:18:28;;;;;;;16.00;9.07;;;17.50;92.30;;;;;;5012487;28;20166;-79
2022/04/26 13:20:56;;;;;;;20.93;9.00;;;17.60;92.70;;;;;;5012535;28;20174;-80
2022/04/26 13:23:22;;;;;;;13.10;9.20;;;17.50;92.50;;;;;;5012963;28;20191;-80
2022/04/26 13:25:48;;;;;;;12.67;8.90;;;16.90;93.90;;;;;;5012307;28;20178;-80
2022/04/26 13:28:14;;;;;;;14.93;9.27;;;16.80;93.60;;;;;;5013879;28;20171;-80
2022/04/26 13:30:40;;;;;;;21.13;8.80;;;16.40;93.50;;;;;;5013688;28;20173;-80
2022/04/26 13:33:06;;;;;;;17.70;9.53;;;16.00;93.80;;;;;;5012768;28;20178;-80
2022/04/26 13:35:33;;;;;;;13.73;9.30;;;16.30;93.50;;;;;;5012662;28;20710;-80
2022/04/26 13:37:58;;;;;;;13.00;9.37;;;16.30;93.40;;;;;;5012161;28;20591;-80
2022/04/26 13:40:25;;;;;;;15.30;8.90;;;16.60;92.60;;;;;;5012652;28;20175;-80
2022/04/26 13:42:53;;;;;;;15.17;8.10;;;17.00;92.30;;;;;;5012762;28;20761;-80
2022/04/26 13:45:20;;;;;;;15.27;8.83;;;16.90;92.70;;;;;;5012348;28;20178;-80
2022/04/26 13:47:46;;;;;;;14.57;8.90;;;17.30;92.20;;;;;;5012309;28;20561;-79
2022/04/26 13:50:12;;;;;;;17.07;9.27;;;17.10;92.70;;;;;;5012580;28;20173;-80
2022/04/26 13:52:40;;;;;;;14.63;8.43;;;17.10;92.00;;;;;;5012851;28;20204;-80
2022/04/26 13:55:06;;;;;;;12.53;8.37;;;17.10;92.90;;;;;;5013247;28;20209;-80
2022/04/26 13:57:33;;;;;;;15.53;8.70;;;17.20;93.10;;;;;;5012731;28;20612;-80
2022/04/26 13:59:58;;;;;;;14.00;8.40;;;17.10;93.00;;;;;;5012689;28;20639;-79
2022/04/26 14:02:24;;;;;;;13.00;7.77;;;17.30;93.50;;;;;;5011964;28;20195;-79
2022/04/26 14:04:50;;;;;;;16.40;8.10;;;17.20;92.50;;;;;;5014033;28;20636;-79
2022/04/26 14:07:17;;;;;;;15.67;8.27;;;17.10;92.70;;;;;;5012802;28;20660;-80
2022/04/26 14:09:43;;;;;;;12.30;8.20;;;16.90;92.60;;;;;;5013725;28;20178;-79
2022/04/26 14:12:08;;;;;;;11.03;7.97;;;17.00;93.20;;;;;;5011126;28;20261;-80
2022/04/26 14:22:50;;;;;;;18.90;8.27;;;17.30;92.50;;;;;;5019316;28;20208;-80
2022/04/26 14:25:16;;;;;;;11.80;7.97;;;17.30;91.60;;;;;;5018251;28;20167;-81
2022/04/26 14:27:44;;;;;;;14.97;7.93;;;17.20;92.80;;;;;;5016564;28;20260;-80
2022/04/26 14:30:15;;;;;;;10.67;7.60;;;17.40;92.40;;;;;;5017017;28;20823;-80
2022/04/26 14:32:41;;;;;;;15.40;7.83;;;17.10;91.80;;;;;;5015955;28;20189;-79
2022/04/26 14:35:07;;;;;;;11.13;7.90;;;17.20;91.40;;;;;;5019070;28;20170;-80
2022/04/26 14:37:35;;;;;;;16.73;7.97;;;16.90;92.00;;;;;;5016499;28;20201;-80
2022/04/26 14:40:03;;;;;;;12.60;7.80;;;16.90;93.20;;;;;;5013817;28;20661;-79
2022/04/26 14:42:29;;;;;;;10.30;7.50;;;16.90;91.70;;;;;;5013205;28;20266;-80
2022/04/26 14:44:56;;;;;;;15.10;7.93;;;16.70;91.90;;;;;;5011741;28;20167;-78
2022/04/26 14:47:23;;;;;;;11.80;8.07;;;16.60;92.30;;;;;;5014497;28;20222;-79
2022/04/26 14:49:49;;;;;;;11.10;7.77;;;16.70;92.50;;;;;;5013039;28;20174;-80
2022/04/26 14:52:16;;;;;;;13.00;7.60;;;16.70;92.60;;;;;;5013353;28;20253;-79
2022/04/26 14:54:42;;;;;;;13.97;8.00;;;16.90;92.60;;;;;;5013573;28;20653;-79
2022/04/26 14:57:08;;;;;;;13.13;7.57;;;17.00;92.70;;;;;;5013757;28;20218;-78
2022/04/26 14:59:39;;;;;;;18.60;7.33;;;16.80;91.60;;;;;;5014357;28;20277;-80
2022/04/26 15:02:04;;;;;;;12.87;7.10;;;16.60;91.70;;;;;;5013430;28;20163;-80
2022/04/26 15:04:32;;;;;;;11.53;7.47;;;16.80;91.00;;;;;;5014831;28;20182;-80
2022/04/26 15:06:57;;;;;;;11.60;7.77;;;16.50;91.80;;;;;;5014925;28;20190;-79
2022/04/26 15:17:36;;;;;;;13.07;7.57;;;16.50;92.40;;;;;;5015037;28;20225;-81
2022/04/26 15:20:03;;;;;;;10.63;7.40;;;16.50;91.90;;;;;;5015909;28;20543;-80
2022/04/26 15:22:29;;;;;;;13.10;7.30;;;16.50;92.30;;;;;;5014857;28;20183;-80
2022/04/26 15:24:55;;;;;;;11.17;7.03;;;16.40;92.10;;;;;;5015421;28;20170;-80
2022/04/26 15:27:21;;;;;;;9.77;7.20;;;16.30;91.90;;;;;;5015311;28;20187;-81
2022/04/26 15:29:47;;;;;;;13.10;7.60;;;16.20;91.80;;;;;;5015632;28;20555;-80
2022/04/26 15:32:13;;;;;;;16.47;7.97;;;16.00;92.20;;;;;;5012916;28;20175;-80
2022/04/26 15:34:39;;;;;;;15.50;7.17;;;16.10;91.90;;;;;;5018251;28;20176;-81
2022/04/26 15:37:06;;;;;;;14.77;7.57;;;16.00;92.10;;;;;;5016183;28;20193;-80
2022/04/26 15:39:32;;;;;;;14.17;8.13;;;16.00;92.00;;;;;;5017830;28;20179;-80
2022/04/26 15:41:59;;;;;;;12.13;8.07;;;15.80;92.40;;;;;;5015229;28;20199;-81
2022/04/26 15:44:25;;;;;;;14.43;8.23;;;15.90;92.80;;;;;;5013656;28;20265;-80
2022/04/26 15:46:54;;;;;;;14.07;8.50;;;15.80;92.40;;;;;;5015648;28;20691;-80
2022/04/26 15:49:21;;;;;;;18.00;8.37;;;15.70;92.20;;;;;;5015964;28;20644;-81
2022/04/26 15:51:49;;;;;;;13.60;7.87;;;15.60;92.60;;;;;;5012306;28;20166;-80
2022/04/26 15:54:18;;;;;;;15.30;8.07;;;15.70;92.90;;;;;;5012192;28;20185;-81
2022/04/26 15:56:44;;;;;;;10.77;7.13;;;15.70;92.40;;;;;;5012490;28;20205;-80
2022/04/26 15:59:11;;;;;;;11.77;7.47;;;15.90;92.50;;;;;;5013018;28;20194;-81
2022/04/26 16:01:39;;;;;;;13.60;7.33;;;15.80;92.00;;;;;;5012493;28;20177;-81
2022/04/26 16:04:09;;;;;;;14.77;6.93;;;15.70;91.70;;;;;;5012678;28;20202;-81
2022/04/26 16:06:37;;;;;;;16.23;6.97;;;15.60;91.80;;;;;;5013162;28;20194;-80
2022/04/26 16:22:45;;;;;;;12.80;7.07;;;15.30;92.30;;;;;;5018816;28;20317;-80
2022/04/26 16:25:10;;;;;;;13.60;6.97;;;15.20;92.10;;;;;;5017433;28;20659;-81
2022/04/26 16:27:36;;;;;;;15.50;7.90;;;15.10;92.50;;;;;;5017389;28;20206;-81
2022/04/26 16:30:02;;;;;;;12.43;7.07;;;15.10;92.90;;;;;;5018326;28;20176;-80
2022/04/26 16:32:28;;;;;;;15.13;7.97;;;15.30;92.80;;;;;;5018290;28;20294;-81
2022/04/26 16:34:56;;;;;;;12.73;6.57;;;15.20;92.70;;;;;;5018257;28;20181;-82
2022/04/26 16:37:22;;;;;;;12.17;7.03;;;15.40;92.40;;;;;;5017756;28;20204;-81
2022/04/26 16:39:48;;;;;;;10.90;7.07;;;15.10;93.10;;;;;;5018491;28;20662;-81
2022/04/26 16:42:14;;;;;;;13.77;7.10;;;15.00;92.90;;;;;;5017967;28;20178;-81
2022/04/26 16:44:41;;;;;;;12.17;7.40;;;14.90;93.20;;;;;;5018774;28;20175;-82
2022/04/26 16:47:07;;;;;;;17.20;7.77;;;14.70;93.40;;;;;;5017669;28;20202;-81
2022/04/26 16:49:33;;;;;;;12.90;7.30;;;14.60;92.80;;;;;;5017990;28;20203;-81
2022/04/26 16:51:59;;;;;;;12.57;6.67;;;14.50;93.30;;;;;;5018575;28;20174;-81
2022/04/26 16:54:25;;;;;;;12.30;7.00;;;14.60;93.80;;;;;;5018168;28;20661;-81
2022/04/26 16:56:51;;;;;;;10.33;6.73;;;14.70;93.00;;;;;;5019305;28;20195;-81
2022/04/26 16:59:17;;;;;;;12.33;7.30;;;14.50;93.50;;;;;;5020066;28;20190;-81
2022/04/26 17:01:44;;;;;;;12.10;7.07;;;14.40;93.70;;;;;;5021242;28;20172;-81
2022/04/26 17:04:12;;;;;;;11.43;7.30;;;14.50;93.30;;;;;;5023060;28;20202;-82
2022/04/26 17:06:38;;;;;;;13.13;7.20;;;14.50;93.30;;;;;;5023022;28;20205;-82
2022/04/26 17:09:04;;;;;;;11.70;6.60;;;14.40;93.30;;;;;;5024642;28;20202;-82
2022/04/26 17:11:42;;;;;;;9.47;6.87;;;14.30;93.10;;;;;;5021100;28;20181;-80
2022/04/26 17:14:18;;;;;;;11.13;6.83;;;14.30;93.20;;;;;;5014100;28;20163;-81